Time;durP1;ratioP1;P1;durP2;ratioP2;P2;SDS_P1;SDS_P2;PMS_P1;PMS_P2;Temp;Humidity;BMP_temperature;BMP_pressure;BME280_temperature;BME280_humidity;BME280_pressure;Samples;Min_cycle;Max_cycle;Signal;HPM_P1;HPM_P2
2021/05/10 00:01:57;;;;;;;2.00;1.90;;;18.60;39.50;;;;;;6249182;23;20225;-93
2021/05/10 00:04:23;;;;;;;2.50;2.30;;;18.50;39.40;;;;;;6249892;23;20148;-92
2021/05/10 00:06:49;;;;;;;2.10;1.87;;;18.50;39.50;;;;;;6249477;23;20177;-93
2021/05/10 00:09:14;;;;;;;1.83;1.73;;;18.50;39.20;;;;;;6250623;23;20142;-92
2021/05/10 00:11:40;;;;;;;1.93;1.63;;;18.60;39.10;;;;;;6251329;23;20474;-93
2021/05/10 00:14:06;;;;;;;2.43;2.07;;;18.50;39.50;;;;;;6251689;23;20149;-92
2021/05/10 00:16:38;;;;;;;2.70;1.80;;;18.60;38.70;;;;;;6249971;23;20150;-92
2021/05/10 00:19:04;;;;;;;2.30;2.10;;;18.50;38.70;;;;;;6250306;23;20386;-93
2021/05/10 00:21:30;;;;;;;2.47;2.27;;;18.40;38.80;;;;;;6250239;23;20495;-91
2021/05/10 00:23:56;;;;;;;2.40;1.83;;;18.20;38.90;;;;;;6251641;23;20153;-92
2021/05/10 00:26:22;;;;;;;2.87;2.67;;;18.30;39.20;;;;;;6251080;23;20438;-93
2021/05/10 00:28:49;;;;;;;1.87;1.77;;;18.10;39.50;;;;;;6251068;23;20375;-91
2021/05/10 00:31:15;;;;;;;2.10;1.90;;;18.20;39.80;;;;;;6251267;23;20207;-91
2021/05/10 00:33:40;;;;;;;1.80;1.70;;;18.10;39.90;;;;;;6248969;23;20392;-93
2021/05/10 00:36:06;;;;;;;2.40;1.83;;;18.00;40.20;;;;;;6249131;23;20463;-92
2021/05/10 00:38:32;;;;;;;3.83;2.10;;;17.80;40.80;;;;;;6249276;23;20157;-93
2021/05/10 00:40:58;;;;;;;2.00;1.77;;;17.80;40.80;;;;;;6249392;23;20142;-92
2021/05/10 00:43:25;;;;;;;3.30;1.77;;;17.70;40.80;;;;;;6249509;23;20154;-92
2021/05/10 00:45:51;;;;;;;2.73;2.30;;;17.60;41.00;;;;;;6249688;23;20173;-93
2021/05/10 00:48:23;;;;;;;3.60;2.00;;;17.60;41.50;;;;;;6249077;23;20369;-92
2021/05/10 00:50:49;;;;;;;2.43;2.23;;;17.50;42.00;;;;;;6247666;23;20144;-92
2021/05/10 00:53:15;;;;;;;2.40;2.23;;;17.50;42.00;;;;;;6249097;23;20373;-92
2021/05/10 00:55:41;;;;;;;2.70;2.30;;;17.00;42.20;;;;;;6249402;23;20153;-91
2021/05/10 00:58:08;;;;;;;3.20;2.50;;;16.80;43.30;;;;;;6250249;23;20368;-92
2021/05/10 01:00:38;;;;;;;3.87;2.13;;;16.60;44.50;;;;;;6250585;23;20522;-92
2021/05/10 01:03:05;;;;;;;2.37;1.90;;;16.60;44.60;;;;;;6250122;23;20372;-92
2021/05/10 01:05:31;;;;;;;4.93;2.60;;;16.70;44.60;;;;;;6249802;23;20408;-92
2021/05/10 01:07:57;;;;;;;3.30;2.40;;;16.80;45.30;;;;;;6248695;23;20404;-92
2021/05/10 01:10:25;;;;;;;2.73;2.20;;;16.80;45.40;;;;;;6249421;23;20376;-92
2021/05/10 01:12:51;;;;;;;2.20;2.10;;;16.80;44.90;;;;;;6249027;23;20397;-91
2021/05/10 01:15:18;;;;;;;2.17;2.00;;;17.10;45.00;;;;;;6249421;23;20388;-92
2021/05/10 01:17:45;;;;;;;2.10;2.00;;;16.90;44.80;;;;;;6248506;23;20460;-91
2021/05/10 01:20:13;;;;;;;2.47;2.10;;;16.90;44.90;;;;;;6249336;23;20432;-92
2021/05/10 01:22:44;;;;;;;3.10;2.60;;;17.00;44.90;;;;;;6250227;23;20463;-93
2021/05/10 01:25:17;;;;;;;4.13;2.60;;;17.00;44.90;;;;;;6250048;23;20538;-93
2021/05/10 01:27:43;;;;;;;2.47;2.27;;;16.60;44.60;;;;;;6250594;23;20408;-93
2021/05/10 01:30:14;;;;;;;2.03;1.80;;;16.70;44.70;;;;;;6250817;23;20768;-93
2021/05/10 01:32:40;;;;;;;2.63;2.43;;;16.70;44.70;;;;;;6250257;23;20377;-92
2021/05/10 01:35:22;;;;;;;2.73;2.20;;;16.90;44.90;;;;;;6250965;23;20423;-91
2021/05/10 01:37:50;;;;;;;2.53;1.90;;;16.70;44.70;;;;;;6249258;23;20240;-91
2021/05/10 01:40:16;;;;;;;2.60;2.40;;;16.80;44.70;;;;;;6248456;23;20387;-92
2021/05/10 01:42:42;;;;;;;2.80;2.60;;;16.60;45.00;;;;;;6248139;23;20385;-91
2021/05/10 01:45:08;;;;;;;3.07;2.30;;;16.60;45.00;;;;;;6249068;23;20792;-93
2021/05/10 01:47:34;;;;;;;3.23;2.33;;;16.70;44.80;;;;;;6249516;23;20359;-92
2021/05/10 01:50:07;;;;;;;4.07;2.47;;;16.70;45.00;;;;;;6248408;23;20380;-91
2021/05/10 01:52:35;;;;;;;2.30;2.10;;;16.60;45.60;;;;;;6248202;23;20369;-92
2021/05/10 01:55:01;;;;;;;3.00;2.00;;;16.50;46.20;;;;;;6248244;23;20391;-91
2021/05/10 01:57:26;;;;;;;2.57;2.30;;;16.70;46.50;;;;;;6248980;23;20471;-92
2021/05/10 01:59:52;;;;;;;2.30;2.10;;;16.50;46.30;;;;;;6248949;23;20475;-91
2021/05/10 02:02:18;;;;;;;2.80;2.20;;;16.50;46.10;;;;;;6247135;23;20154;-91
2021/05/10 02:05:13;;;;;;;2.50;2.30;;;16.50;45.80;;;;;;6247514;23;20219;-92
2021/05/10 02:07:41;;;;;;;4.13;2.80;;;16.20;46.10;;;;;;6247830;23;20146;-92
2021/05/10 02:10:11;;;;;;;2.50;2.30;;;16.20;46.70;;;;;;6248853;23;20824;-92
2021/05/10 02:12:37;;;;;;;4.73;2.43;;;16.30;46.20;;;;;;6248583;23;20430;-92
2021/05/10 02:15:09;;;;;;;2.53;2.33;;;16.40;45.60;;;;;;6248221;23;20368;-91
2021/05/10 02:17:37;;;;;;;2.87;2.20;;;16.80;45.30;;;;;;6248387;23;20423;-92
2021/05/10 02:20:05;;;;;;;2.53;2.33;;;16.60;44.60;;;;;;6248794;23;20428;-91
2021/05/10 02:22:31;;;;;;;2.50;2.30;;;16.50;45.30;;;;;;6249057;23;20400;-92
2021/05/10 02:24:57;;;;;;;3.03;2.43;;;16.40;46.40;;;;;;6248355;23;20416;-92
2021/05/10 02:27:22;;;;;;;3.00;2.03;;;16.40;46.40;;;;;;6249096;23;20146;-91
2021/05/10 02:29:48;;;;;;;3.60;2.60;;;16.50;46.30;;;;;;6249037;23;20196;-92
2021/05/10 02:32:13;;;;;;;2.50;2.30;;;16.50;46.10;;;;;;6247745;23;20134;-92
2021/05/10 02:34:40;;;;;;;5.20;1.87;;;16.50;46.10;;;;;;6248363;23;20225;-93
2021/05/10 02:37:06;;;;;;;3.60;2.40;;;16.50;46.00;;;;;;6249393;23;20142;-92
2021/05/10 02:39:32;;;;;;;6.23;3.27;;;16.50;46.00;;;;;;6248885;23;20396;-92
2021/05/10 02:41:57;;;;;;;2.77;2.57;;;16.70;46.30;;;;;;6248191;23;20144;-92
2021/05/10 02:44:24;;;;;;;3.37;2.70;;;16.00;45.90;;;;;;6247607;23;20146;-92
2021/05/10 02:46:50;;;;;;;2.43;2.20;;;16.30;46.20;;;;;;6248142;23;20165;-93
2021/05/10 02:49:16;;;;;;;2.30;2.10;;;16.30;45.90;;;;;;6248922;23;20751;-93
2021/05/10 02:51:42;;;;;;;2.50;2.30;;;16.50;45.70;;;;;;6248374;23;20366;-91
2021/05/10 02:54:07;;;;;;;2.57;1.90;;;16.30;45.70;;;;;;6250414;23;20477;-92
2021/05/10 02:56:33;;;;;;;4.40;2.40;;;16.30;45.40;;;;;;6247876;23;20142;-92
2021/05/10 02:59:01;;;;;;;3.10;2.17;;;16.20;45.40;;;;;;6247872;23;20586;-92
2021/05/10 03:01:26;;;;;;;3.40;2.30;;;16.30;45.50;;;;;;6246544;23;20570;-92
2021/05/10 03:03:52;;;;;;;2.10;1.90;;;16.20;45.40;;;;;;6247512;23;20431;-92
2021/05/10 03:06:18;;;;;;;2.20;2.07;;;16.30;45.50;;;;;;6247832;23;20263;-92
2021/05/10 03:08:45;;;;;;;3.00;2.30;;;16.30;45.40;;;;;;6247935;23;20446;-92
2021/05/10 03:11:10;;;;;;;2.60;2.37;;;16.00;45.20;;;;;;6248635;23;20150;-92
2021/05/10 03:13:55;;;;;;;2.30;2.10;;;15.80;45.70;;;;;;6248681;23;20368;-92
2021/05/10 03:16:20;;;;;;;2.60;2.40;;;15.70;46.50;;;;;;6248615;23;20663;-90
2021/05/10 03:18:46;;;;;;;3.10;2.80;;;15.70;46.70;;;;;;6249396;23;20373;-92
2021/05/10 03:21:13;;;;;;;5.27;2.40;;;15.30;46.80;;;;;;6248974;23;20193;-92
2021/05/10 03:23:39;;;;;;;1.73;1.60;;;15.50;47.70;;;;;;6249811;23;20152;-91
2021/05/10 03:26:05;;;;;;;2.37;2.13;;;15.40;48.00;;;;;;6249444;23;20416;-91
2021/05/10 03:28:30;;;;;;;2.77;2.57;;;15.50;47.90;;;;;;6249423;23;20153;-91
2021/05/10 03:31:01;;;;;;;2.73;2.53;;;15.40;48.10;;;;;;6249019;23;20145;-92
2021/05/10 03:33:27;;;;;;;2.40;2.20;;;15.60;48.40;;;;;;6248655;23;20918;-92
2021/05/10 03:35:59;;;;;;;2.20;2.10;;;15.60;48.30;;;;;;6248733;23;20376;-91
2021/05/10 03:38:24;;;;;;;2.50;2.30;;;15.80;47.90;;;;;;6248459;23;20180;-91
2021/05/10 03:40:50;;;;;;;2.10;2.00;;;15.80;47.90;;;;;;6248174;23;20865;-91
2021/05/10 03:43:16;;;;;;;2.90;2.20;;;15.90;48.50;;;;;;6249385;23;20157;-91
2021/05/10 03:45:41;;;;;;;2.80;2.50;;;15.80;48.20;;;;;;6248794;23;20177;-92
2021/05/10 03:48:07;;;;;;;4.17;3.43;;;16.00;48.30;;;;;;6248780;23;20200;-91
2021/05/10 03:50:33;;;;;;;4.60;2.33;;;16.10;48.90;;;;;;6249328;23;20146;-92
2021/05/10 03:52:58;;;;;;;3.00;2.67;;;16.00;48.60;;;;;;6249293;23;20150;-91
2021/05/10 03:55:25;;;;;;;4.30;3.70;;;16.20;48.70;;;;;;6248903;23;20146;-91
2021/05/10 03:57:52;;;;;;;5.00;3.37;;;16.20;48.90;;;;;;6248899;23;20150;-91
2021/05/10 04:00:19;;;;;;;4.47;3.30;;;16.40;48.90;;;;;;6248671;23;20384;-91
2021/05/10 04:02:45;;;;;;;4.50;4.10;;;16.40;48.40;;;;;;6247531;23;20526;-93
2021/05/10 04:16:46;;;;;;;3.63;2.90;;;16.70;47.20;;;;;;6249532;23;20355;-93
2021/05/10 04:19:27;;;;;;;3.33;2.60;;;16.80;46.70;;;;;;6249016;23;20377;-93
2021/05/10 04:21:53;;;;;;;3.33;3.07;;;16.90;46.40;;;;;;6248618;23;20158;-92
2021/05/10 04:24:19;;;;;;;6.30;3.40;;;17.00;46.30;;;;;;6247472;23;20360;-93
2021/05/10 04:26:45;;;;;;;2.93;2.73;;;17.00;46.10;;;;;;6249721;23;20208;-93
2021/05/10 04:29:12;;;;;;;5.03;3.00;;;17.40;46.80;;;;;;6249384;23;20396;-92
2021/05/10 04:31:37;;;;;;;5.00;3.30;;;17.20;46.30;;;;;;6250251;23;20141;-92
2021/05/10 04:34:04;;;;;;;4.57;3.17;;;17.10;46.40;;;;;;6250619;23;20399;-91
2021/05/10 04:36:29;;;;;;;3.00;2.67;;;16.90;46.20;;;;;;6251690;23;20590;-92
2021/05/10 04:38:55;;;;;;;3.37;3.07;;;17.50;46.60;;;;;;6251761;23;20369;-92
2021/05/10 04:41:21;;;;;;;6.57;2.67;;;17.20;46.50;;;;;;6250815;23;20146;-93
2021/05/10 04:43:48;;;;;;;4.13;2.60;;;17.00;46.40;;;;;;6250623;23;20152;-91
2021/05/10 04:46:13;;;;;;;3.70;2.53;;;17.20;46.50;;;;;;6251538;23;20609;-91
2021/05/10 04:48:42;;;;;;;3.80;2.77;;;17.20;45.70;;;;;;6249348;23;20375;-92
2021/05/10 04:51:07;;;;;;;3.03;2.37;;;17.30;45.20;;;;;;6249160;23;20164;-92
2021/05/10 04:53:33;;;;;;;2.30;2.20;;;17.40;45.20;;;;;;6249943;23;20456;-92
2021/05/10 04:55:59;;;;;;;2.50;2.30;;;17.50;44.50;;;;;;6250420;23;20142;-92
2021/05/10 04:58:43;;;;;;;2.57;2.37;;;17.60;44.30;;;;;;6251672;23;20598;-91
2021/05/10 05:01:09;;;;;;;3.63;2.77;;;18.00;44.30;;;;;;6253320;23;20152;-92
2021/05/10 05:03:34;;;;;;;4.73;3.23;;;17.90;44.50;;;;;;6252850;23;20377;-91
2021/05/10 05:06:12;;;;;;;2.40;2.20;;;18.00;44.10;;;;;;6250340;23;20173;-92
2021/05/10 05:08:38;;;;;;;3.30;3.00;;;18.10;43.90;;;;;;6249947;23;20142;-93
2021/05/10 05:11:11;;;;;;;3.33;3.03;;;18.10;43.60;;;;;;6250292;23;20343;-93
2021/05/10 05:13:36;;;;;;;2.63;2.43;;;18.20;43.30;;;;;;6251326;23;20146;-93
2021/05/10 05:16:02;;;;;;;3.13;2.83;;;18.10;43.50;;;;;;6252109;23;20384;-92
2021/05/10 05:18:28;;;;;;;3.43;2.57;;;18.30;42.90;;;;;;6250743;23;20249;-92
2021/05/10 05:20:54;;;;;;;2.10;2.00;;;18.50;42.10;;;;;;6249376;23;20432;-92
2021/05/10 05:23:56;;;;;;;3.10;2.37;;;18.10;42.10;;;;;;6254500;23;20242;-95
2021/05/10 05:29:32;;;;;;;3.83;2.20;;;18.40;42.20;;;;;;6259710;23;20379;-94
2021/05/10 05:32:01;;;;;;;2.73;2.30;;;18.50;41.70;;;;;;6271130;22;20434;-93
2021/05/10 05:37:49;;;;;;;2.63;2.43;;;18.20;41.40;;;;;;6260095;23;20813;-93
2021/05/10 05:40:15;;;;;;;2.90;2.60;;;18.30;40.90;;;;;;6248603;23;20391;-90
2021/05/10 05:42:41;;;;;;;2.67;2.47;;;18.10;41.70;;;;;;6247713;23;20395;-92
2021/05/10 05:45:07;;;;;;;2.50;2.20;;;17.90;42.10;;;;;;6247014;23;20421;-92
2021/05/10 05:47:33;;;;;;;2.70;2.50;;;18.00;42.60;;;;;;6246749;23;20177;-91
2021/05/10 05:49:59;;;;;;;2.73;2.17;;;18.10;42.30;;;;;;6245586;23;20380;-94
2021/05/10 05:52:24;;;;;;;2.83;2.10;;;18.20;41.60;;;;;;6253395;23;20585;-91
2021/05/10 05:54:59;;;;;;;3.20;2.33;;;18.30;41.60;;;;;;6250430;23;20236;-93
2021/05/10 05:57:24;;;;;;;3.27;3.07;;;18.50;41.30;;;;;;6249768;23;20142;-94
2021/05/10 05:59:51;;;;;;;3.00;2.50;;;18.80;41.70;;;;;;6250651;23;20369;-92
2021/05/10 06:02:17;;;;;;;4.10;2.63;;;18.80;41.70;;;;;;6249390;23;20142;-93
2021/05/10 06:08:06;;;;;;;2.23;2.07;;;19.20;40.10;;;;;;6249782;23;20177;-89
2021/05/10 06:10:32;;;;;;;2.93;2.63;;;19.10;38.90;;;;;;6246762;23;20426;-91
2021/05/10 06:13:06;;;;;;;3.23;2.47;;;18.90;39.00;;;;;;6249529;23;20778;-93
2021/05/10 06:15:32;;;;;;;3.30;2.70;;;19.10;39.80;;;;;;6249628;23;20471;-94
2021/05/10 06:17:58;;;;;;;2.80;2.60;;;19.20;40.20;;;;;;6250381;23;20353;-94
2021/05/10 06:23:53;;;;;;;3.50;2.60;;;19.70;39.10;;;;;;6255983;23;20509;-88
2021/05/10 06:26:25;;;;;;;4.70;2.90;;;19.80;39.60;;;;;;6221455;23;20487;-87
2021/05/10 06:28:51;;;;;;;4.17;3.77;;;20.00;38.90;;;;;;6222074;23;20376;-88
2021/05/10 06:31:51;;;;;;;3.40;2.77;;;20.30;38.90;;;;;;6221904;23;20739;-88
2021/05/10 06:34:16;;;;;;;3.40;3.10;;;20.50;38.40;;;;;;6221648;23;20220;-87
2021/05/10 06:36:42;;;;;;;2.93;2.73;;;20.80;38.00;;;;;;6221406;23;20454;-87
2021/05/10 06:43:07;;;;;;;3.70;3.10;;;21.00;36.90;;;;;;6252115;23;20152;-90
2021/05/10 06:52:17;;;;;;;5.73;3.50;;;21.90;35.30;;;;;;6254245;23;20347;-87
2021/05/10 06:55:22;;;;;;;19.10;7.70;;;22.00;35.00;;;;;;6221387;23;20367;-87
2021/05/10 06:57:48;;;;;;;8.50;5.07;;;22.20;34.70;;;;;;6221472;23;20138;-88
2021/05/10 07:00:15;;;;;;;7.13;4.70;;;22.20;35.10;;;;;;6221886;23;20391;-88
2021/05/10 07:02:40;;;;;;;7.73;3.70;;;22.30;35.00;;;;;;6222409;23;20856;-87
2021/05/10 07:05:14;;;;;;;6.03;3.83;;;22.50;34.80;;;;;;6221824;23;20416;-88
2021/05/10 07:07:41;;;;;;;7.37;4.87;;;22.70;34.20;;;;;;6222138;23;20173;-87
2021/05/10 07:10:26;;;;;;;5.43;3.30;;;22.70;33.50;;;;;;6221074;23;20469;-86
2021/05/10 07:12:52;;;;;;;4.53;3.70;;;22.70;33.50;;;;;;6221802;23;20334;-88
2021/05/10 07:15:20;;;;;;;3.87;3.03;;;22.70;33.50;;;;;;6221406;23;20339;-87
2021/05/10 07:17:45;;;;;;;3.10;2.90;;;22.90;33.50;;;;;;6221421;23;20161;-87
2021/05/10 07:20:12;;;;;;;5.43;3.47;;;22.90;33.10;;;;;;6221590;23;20395;-88
2021/05/10 07:22:39;;;;;;;2.93;2.73;;;23.10;31.90;;;;;;6207737;23;20275;-88
2021/05/10 07:25:05;;;;;;;5.67;3.97;;;23.10;31.70;;;;;;6191451;23;20423;-88
2021/05/10 07:27:32;;;;;;;3.67;3.37;;;23.10;31.80;;;;;;6190529;23;20377;-88
2021/05/10 07:29:57;;;;;;;4.83;3.47;;;23.10;31.90;;;;;;6191841;23;20713;-89
2021/05/10 07:32:23;;;;;;;9.20;3.40;;;23.10;30.50;;;;;;6192352;23;20356;-89
2021/05/10 07:34:49;;;;;;;4.90;3.40;;;22.90;30.50;;;;;;6191637;23;20173;-89
2021/05/10 07:37:15;;;;;;;5.47;3.30;;;22.80;30.40;;;;;;6191516;23;20404;-92
2021/05/10 07:39:40;;;;;;;4.30;3.20;;;22.70;30.70;;;;;;6197164;23;20173;-94
2021/05/10 07:42:37;;;;;;;3.60;3.10;;;22.80;30.80;;;;;;6198717;23;20602;-95
2021/05/10 07:45:04;;;;;;;3.57;3.27;;;23.00;30.50;;;;;;6194608;23;20188;-91
2021/05/10 07:47:31;;;;;;;3.07;2.70;;;23.10;30.20;;;;;;6191907;23;20348;-91
2021/05/10 07:49:58;;;;;;;2.90;2.70;;;23.20;30.00;;;;;;6192780;23;20377;-93
2021/05/10 07:52:25;;;;;;;3.10;2.60;;;23.40;30.00;;;;;;6192243;23;20383;-90
2021/05/10 07:54:51;;;;;;;5.40;2.80;;;23.30;30.20;;;;;;6191936;23;20392;-90
2021/05/10 07:57:19;;;;;;;4.43;3.17;;;23.30;30.50;;;;;;6192347;23;20384;-91
2021/05/10 07:59:47;;;;;;;4.50;4.10;;;23.40;30.60;;;;;;6194493;23;20146;-91
2021/05/10 08:02:14;;;;;;;3.30;3.00;;;23.40;30.40;;;;;;6193961;23;20412;-91
2021/05/10 08:04:41;;;;;;;4.37;2.70;;;23.30;30.40;;;;;;6193280;23;20879;-92
2021/05/10 08:07:08;;;;;;;3.40;3.10;;;23.40;30.70;;;;;;6191533;23;20458;-91
2021/05/10 08:09:34;;;;;;;4.47;2.60;;;23.40;30.50;;;;;;6193253;23;20373;-90
2021/05/10 08:12:17;;;;;;;4.40;2.47;;;23.60;30.50;;;;;;6193697;23;20385;-91
2021/05/10 08:14:43;;;;;;;4.30;3.00;;;23.90;30.20;;;;;;6193961;23;20138;-91
2021/05/10 08:17:09;;;;;;;4.40;2.77;;;23.80;30.10;;;;;;6193357;23;20362;-91
2021/05/10 08:19:35;;;;;;;3.07;2.77;;;24.60;29.90;;;;;;6193544;23;20146;-91
2021/05/10 08:22:02;;;;;;;3.47;2.63;;;24.80;28.90;;;;;;6200301;23;20251;-91
2021/05/10 08:24:28;;;;;;;5.13;3.87;;;25.10;27.80;;;;;;6248940;23;20375;-90
2021/05/10 08:26:55;;;;;;;3.23;3.00;;;25.30;27.90;;;;;;6249253;23;20382;-91
2021/05/10 08:29:21;;;;;;;7.43;3.37;;;25.40;27.90;;;;;;6255286;23;20158;-93
2021/05/10 08:31:49;;;;;;;3.30;2.83;;;25.40;27.90;;;;;;6256994;23;20816;-93
2021/05/10 08:34:16;;;;;;;3.73;3.40;;;25.50;26.70;;;;;;6256577;23;20145;-91
2021/05/10 08:36:42;;;;;;;2.70;2.50;;;25.50;26.70;;;;;;6249566;23;20396;-91
2021/05/10 08:39:09;;;;;;;3.57;2.30;;;25.50;25.80;;;;;;6247971;23;20396;-91
2021/05/10 08:41:40;;;;;;;2.10;2.00;;;25.80;25.80;;;;;;6248048;23;20355;-91
2021/05/10 08:44:08;;;;;;;2.20;2.00;;;26.00;25.60;;;;;;6248437;23;20347;-89
2021/05/10 08:46:36;;;;;;;2.17;1.97;;;26.10;23.50;;;;;;6248051;23;20759;-89
2021/05/10 08:49:03;;;;;;;2.00;1.90;;;26.10;23.30;;;;;;6248740;23;20343;-89
2021/05/10 08:51:30;;;;;;;3.60;2.20;;;26.20;23.00;;;;;;6249211;23;20439;-90
2021/05/10 08:53:57;;;;;;;2.53;2.10;;;26.40;23.10;;;;;;6250287;23;20376;-89
2021/05/10 08:56:25;;;;;;;2.77;2.00;;;26.50;21.80;;;;;;6259635;23;20826;-90
2021/05/10 08:58:55;;;;;;;3.53;2.50;;;26.60;21.80;;;;;;6253149;23;20343;-91
2021/05/10 09:01:48;;;;;;;2.80;1.70;;;26.80;22.00;;;;;;6252348;23;20373;-89
2021/05/10 09:04:15;;;;;;;2.57;1.77;;;27.10;22.10;;;;;;6250877;23;20400;-89
2021/05/10 09:06:41;;;;;;;2.13;1.73;;;27.30;22.20;;;;;;6249469;23;20395;-89
2021/05/10 09:09:08;;;;;;;1.90;1.80;;;27.60;21.70;;;;;;6253818;23;20381;-93
2021/05/10 09:11:52;;;;;;;2.90;2.60;;;27.70;21.50;;;;;;6252357;23;20366;-91
2021/05/10 09:14:30;;;;;;;2.03;1.93;;;27.80;20.90;;;;;;6251794;23;20420;-91
2021/05/10 09:16:56;;;;;;;3.23;3.00;;;27.80;21.40;;;;;;6249476;23;20382;-91
2021/05/10 09:19:51;;;;;;;2.83;2.13;;;27.90;20.80;;;;;;6253643;23;20382;-89
2021/05/10 09:22:47;;;;;;;3.27;1.93;;;27.90;20.90;;;;;;6255280;23;20205;-93
2021/05/10 09:25:12;;;;;;;2.50;2.30;;;28.20;21.60;;;;;;6250031;23;20438;-90
2021/05/10 09:27:39;;;;;;;3.13;2.53;;;28.20;21.30;;;;;;6249853;23;20378;-91
2021/05/10 09:30:22;;;;;;;2.80;1.93;;;27.90;22.50;;;;;;6250167;23;20615;-91
2021/05/10 09:32:53;;;;;;;3.20;2.50;;;27.70;22.80;;;;;;6249629;23;20377;-91
2021/05/10 09:35:24;;;;;;;4.37;2.27;;;27.70;24.00;;;;;;6248609;23;20363;-90
2021/05/10 09:37:57;;;;;;;5.93;2.30;;;27.70;24.20;;;;;;6246028;23;20388;-90
2021/05/10 09:40:28;;;;;;;2.90;2.10;;;27.80;24.10;;;;;;6247001;23;20442;-89
2021/05/10 09:42:57;;;;;;;3.10;2.30;;;27.60;24.40;;;;;;6245986;23;20364;-89
2021/05/10 09:59:00;;;;;;;6.90;2.57;;;28.80;23.10;;;;;;6129055;23;20354;-87
2021/05/10 10:01:43;;;;;;;4.50;2.37;;;28.90;23.50;;;;;;6103609;23;20391;-87
2021/05/10 10:04:08;;;;;;;3.53;2.13;;;29.00;23.40;;;;;;6102640;23;20387;-88
2021/05/10 10:06:34;;;;;;;2.70;2.50;;;28.80;23.50;;;;;;6200744;23;20772;-87
2021/05/10 10:09:06;;;;;;;4.03;1.93;;;28.80;23.00;;;;;;6248531;23;20162;-87
2021/05/10 10:11:32;;;;;;;2.47;2.27;;;28.60;22.90;;;;;;6248097;23;20492;-88
2021/05/10 10:14:01;;;;;;;3.83;2.67;;;28.30;23.60;;;;;;6247993;23;20775;-92
2021/05/10 10:16:29;;;;;;;3.10;2.43;;;27.80;24.30;;;;;;6249546;23;20413;-91
2021/05/10 10:22:23;;;;;;;4.77;2.33;;;27.60;25.00;;;;;;6259288;23;20420;-92
2021/05/10 10:24:50;;;;;;;3.30;2.05;;;28.00;24.30;;;;;;6197177;23;20399;-92
2021/05/10 10:27:16;;;;;;;2.40;2.20;;;28.10;24.30;;;;;;6194364;23;20888;-91
2021/05/10 10:29:47;;;;;;;3.07;2.30;;;27.90;23.40;;;;;;6194140;23;20386;-90
2021/05/10 10:32:17;;;;;;;2.10;1.90;;;28.40;23.70;;;;;;6194442;23;20395;-91
2021/05/10 10:34:47;;;;;;;3.23;2.40;;;28.50;23.00;;;;;;6195303;23;20388;-91
2021/05/10 10:37:17;;;;;;;3.57;2.30;;;28.50;23.10;;;;;;6193569;23;20467;-91
2021/05/10 10:39:51;;;;;;;2.10;1.87;;;28.50;22.80;;;;;;6195882;23;20764;-90
2021/05/10 10:42:34;;;;;;;3.67;2.70;;;28.50;22.80;;;;;;6195862;23;20832;-92
2021/05/10 10:45:02;;;;;;;2.53;2.20;;;28.30;22.70;;;;;;6196429;23;20836;-92
2021/05/10 10:47:44;;;;;;;2.10;1.90;;;28.10;23.20;;;;;;6192250;23;20801;-92
2021/05/10 10:50:13;;;;;;;3.83;2.43;;;28.10;22.90;;;;;;6193777;23;20361;-92
2021/05/10 10:52:59;;;;;;;3.33;2.13;;;28.10;22.60;;;;;;6191761;23;20363;-88
2021/05/10 10:55:28;;;;;;;2.10;1.90;;;28.00;22.60;;;;;;6190380;23;20386;-89
2021/05/10 10:58:13;;;;;;;2.57;2.20;;;27.90;22.90;;;;;;6192336;23;20436;-90
2021/05/10 11:01:02;;;;;;;2.63;2.43;;;27.90;23.10;;;;;;6191937;23;20382;-90
2021/05/10 11:03:28;;;;;;;2.33;2.10;;;27.80;22.80;;;;;;6191198;23;20915;-90
2021/05/10 11:05:54;;;;;;;2.20;2.00;;;27.80;23.20;;;;;;6191700;23;20406;-90
2021/05/10 11:08:46;;;;;;;3.70;1.93;;;28.00;23.40;;;;;;6192426;23;20374;-91
2021/05/10 11:11:27;;;;;;;2.03;1.60;;;28.10;23.10;;;;;;6194362;23;20397;-92
2021/05/10 11:13:53;;;;;;;2.60;2.40;;;28.20;24.10;;;;;;6192747;23;20373;-90
2021/05/10 11:16:43;;;;;;;4.07;2.70;;;28.40;24.50;;;;;;6196147;23;20152;-90
2021/05/10 11:19:29;;;;;;;2.40;2.20;;;28.30;25.30;;;;;;6196351;23;20375;-92
2021/05/10 11:21:55;;;;;;;4.27;3.40;;;28.00;25.20;;;;;;6194293;23;20395;-90
2021/05/10 11:24:27;;;;;;;2.77;2.47;;;27.70;25.40;;;;;;6239130;23;20436;-90
2021/05/10 11:26:55;;;;;;;2.27;2.13;;;27.40;26.00;;;;;;6248784;23;20395;-90
2021/05/10 11:29:24;;;;;;;3.70;2.07;;;27.20;26.50;;;;;;6247309;23;20825;-89
2021/05/10 11:31:58;;;;;;;4.40;1.83;;;27.10;26.30;;;;;;6247084;23;20667;-92
2021/05/10 11:34:34;;;;;;;4.00;2.23;;;26.90;26.60;;;;;;6248430;23;20388;-89
2021/05/10 11:37:00;;;;;;;2.93;1.70;;;26.70;26.60;;;;;;6249300;23;20699;-90
2021/05/10 11:39:28;;;;;;;3.17;1.90;;;26.30;27.10;;;;;;6248127;23;20384;-89
2021/05/10 11:41:59;;;;;;;2.70;2.00;;;26.10;27.20;;;;;;6248265;23;20379;-89
2021/05/10 11:44:29;;;;;;;2.30;1.57;;;25.90;27.90;;;;;;6248072;23;20384;-91
2021/05/10 11:46:57;;;;;;;2.57;1.70;;;25.80;28.10;;;;;;6247691;23;20782;-90
2021/05/10 11:49:31;;;;;;;2.20;1.97;;;25.90;28.20;;;;;;6248536;23;20768;-89
2021/05/10 11:52:19;;;;;;;2.03;1.50;;;26.00;28.20;;;;;;6253487;23;20355;-91
2021/05/10 11:55:00;;;;;;;2.60;2.37;;;26.00;27.90;;;;;;6247075;23;20363;-89
2021/05/10 11:57:35;;;;;;;4.23;2.10;;;25.70;27.80;;;;;;6249295;23;20403;-91
2021/05/10 12:00:16;;;;;;;1.80;1.47;;;25.90;27.80;;;;;;6250306;23;20851;-88
2021/05/10 12:03:02;;;;;;;1.70;1.33;;;25.80;27.70;;;;;;6251122;23;20434;-92
2021/05/10 12:05:30;;;;;;;1.83;1.70;;;25.40;28.30;;;;;;6250747;23;20401;-90
2021/05/10 12:07:56;;;;;;;2.80;1.40;;;25.10;28.60;;;;;;6248809;23;20552;-89
2021/05/10 12:10:22;;;;;;;2.07;1.87;;;25.10;28.60;;;;;;6247519;23;20363;-92
2021/05/10 12:12:49;;;;;;;2.70;1.80;;;24.90;28.90;;;;;;6249458;23;20142;-90
2021/05/10 12:15:24;;;;;;;5.10;1.93;;;24.80;29.10;;;;;;6249022;23;20558;-90
2021/05/10 12:18:01;;;;;;;1.83;1.40;;;24.80;29.20;;;;;;6249030;23;20376;-90
2021/05/10 12:20:32;;;;;;;2.07;1.87;;;24.80;29.10;;;;;;6251799;23;20399;-90
2021/05/10 12:23:03;;;;;;;2.30;1.97;;;24.90;29.10;;;;;;6250147;23;20445;-91
2021/05/10 12:25:38;;;;;;;2.00;1.50;;;24.80;28.70;;;;;;6250323;23;20432;-92
2021/05/10 12:28:14;;;;;;;1.87;1.50;;;24.70;29.30;;;;;;6250928;23;20451;-91
2021/05/10 12:31:10;;;;;;;2.97;1.37;;;24.60;29.50;;;;;;6250861;23;20355;-91
2021/05/10 12:33:36;;;;;;;3.27;1.50;;;24.70;29.10;;;;;;6250078;23;20872;-91
2021/05/10 12:36:05;;;;;;;2.33;1.80;;;24.60;29.00;;;;;;6248515;23;20343;-92
2021/05/10 12:38:42;;;;;;;1.77;1.33;;;24.50;29.40;;;;;;6249507;23;20533;-91
2021/05/10 12:41:20;;;;;;;1.63;1.13;;;24.40;29.90;;;;;;6249743;23;20358;-92
2021/05/10 12:43:47;;;;;;;2.67;1.30;;;24.50;29.80;;;;;;6251282;23;20385;-92
2021/05/10 12:46:23;;;;;;;1.90;1.80;;;24.60;29.80;;;;;;6253143;23;20181;-90
2021/05/10 12:48:50;;;;;;;1.60;1.50;;;24.60;29.00;;;;;;6252395;23;20357;-89
2021/05/10 12:51:30;;;;;;;3.53;1.87;;;24.80;29.10;;;;;;6252757;23;20359;-91
2021/05/10 12:54:00;;;;;;;4.00;1.43;;;24.70;28.90;;;;;;6252140;23;20819;-91
2021/05/10 12:56:54;;;;;;;1.63;1.40;;;24.80;29.10;;;;;;6252977;23;20763;-90
2021/05/10 12:59:22;;;;;;;3.17;1.83;;;24.90;28.70;;;;;;6252524;23;20412;-92
2021/05/10 13:01:49;;;;;;;2.57;1.50;;;25.00;28.90;;;;;;6250531;23;20442;-91
2021/05/10 13:04:21;;;;;;;2.10;1.40;;;25.00;28.60;;;;;;6252430;23;20401;-91
2021/05/10 13:06:53;;;;;;;3.47;1.40;;;25.00;28.50;;;;;;6253038;23;20499;-90
2021/05/10 13:09:49;;;;;;;1.90;1.20;;;25.00;28.10;;;;;;6252394;23;20380;-92
2021/05/10 13:12:18;;;;;;;1.73;1.10;;;25.10;27.80;;;;;;6257526;23;20369;-91
2021/05/10 13:14:51;;;;;;;5.20;1.50;;;25.20;28.00;;;;;;6254222;23;20444;-93
2021/05/10 13:20:12;;;;;;;2.10;1.40;;;25.10;27.80;;;;;;6264278;23;20362;-91
2021/05/10 13:23:09;;;;;;;2.27;1.43;;;25.10;27.80;;;;;;6249392;23;20347;-90
2021/05/10 13:36:47;;;;;;;2.23;1.30;;;25.60;27.70;;;;;;6251585;23;20709;-90
2021/05/10 13:39:16;;;;;;;1.40;1.03;;;25.50;27.20;;;;;;6226126;23;20378;-90
2021/05/10 13:41:48;;;;;;;1.33;1.00;;;25.60;27.30;;;;;;6223786;23;20362;-90
2021/05/10 13:44:15;;;;;;;1.37;1.20;;;25.70;27.30;;;;;;6222770;23;20379;-90
2021/05/10 13:47:22;;;;;;;2.87;1.87;;;25.70;26.90;;;;;;6222460;23;20399;-92
2021/05/10 13:49:48;;;;;;;1.50;1.20;;;25.60;26.90;;;;;;6223936;23;20369;-90
2021/05/10 13:52:13;;;;;;;1.30;1.13;;;25.20;26.90;;;;;;6224095;23;20379;-91
2021/05/10 13:54:39;;;;;;;1.87;1.30;;;25.10;27.40;;;;;;6223550;23;20233;-91
2021/05/10 13:57:17;;;;;;;2.20;1.00;;;25.10;27.40;;;;;;6223666;23;20372;-92
2021/05/10 13:59:43;;;;;;;2.00;1.17;;;24.80;27.60;;;;;;6222526;23;20704;-92
2021/05/10 14:02:14;;;;;;;5.60;2.00;;;24.90;27.70;;;;;;6226634;23;20376;-91
2021/05/10 14:04:41;;;;;;;5.90;1.33;;;24.80;27.60;;;;;;6237147;23;20146;-93
2021/05/10 14:07:08;;;;;;;1.00;0.90;;;24.60;27.50;;;;;;6244211;23;20416;-94
2021/05/10 14:10:05;;;;;;;7.30;1.27;;;24.60;27.40;;;;;;6262878;23;20327;-92